sensor_id;sensor_type;location;lat;lon;timestamp;pressure;altitude;pressure_sealevel;temperature;humidity
28630;BME280;15817;42.130;24.762;2023-08-08T00:01:46;99387.91;;;25.90;50.55
28630;BME280;15817;42.130;24.762;2023-08-08T00:04:12;99373.63;;;25.87;50.38
28630;BME280;15817;42.130;24.762;2023-08-08T00:06:40;99388.25;;;25.86;50.36
28630;BME280;15817;42.130;24.762;2023-08-08T00:09:07;99382.94;;;25.84;50.53
28630;BME280;15817;42.130;24.762;2023-08-08T00:11:33;99380.06;;;25.86;50.41
28630;BME280;15817;42.130;24.762;2023-08-08T00:13:59;99380.22;;;25.84;50.48
28630;BME280;15817;42.130;24.762;2023-08-08T00:16:24;99387.47;;;25.73;50.99
28630;BME280;15817;42.130;24.762;2023-08-08T00:18:50;99378.66;;;25.69;51.14
28630;BME280;15817;42.130;24.762;2023-08-08T00:21:19;99391.91;;;25.74;51.24
28630;BME280;15817;42.130;24.762;2023-08-08T00:23:45;99389.75;;;25.66;51.39
28630;BME280;15817;42.130;24.762;2023-08-08T00:26:11;99392.59;;;25.65;51.51
28630;BME280;15817;42.130;24.762;2023-08-08T00:28:37;99395.00;;;25.69;51.37
28630;BME280;15817;42.130;24.762;2023-08-08T00:31:03;99392.03;;;25.72;51.46
28630;BME280;15817;42.130;24.762;2023-08-08T00:33:29;99400.25;;;25.59;52.11
28630;BME280;15817;42.130;24.762;2023-08-08T00:35:55;99395.22;;;25.53;52.75
28630;BME280;15817;42.130;24.762;2023-08-08T00:38:21;99392.66;;;25.39;53.75
28630;BME280;15817;42.130;24.762;2023-08-08T00:40:47;99401.63;;;25.29;54.26
28630;BME280;15817;42.130;24.762;2023-08-08T00:43:15;99388.00;;;25.29;54.15
28630;BME280;15817;42.130;24.762;2023-08-08T00:45:42;99398.00;;;25.41;54.16
28630;BME280;15817;42.130;24.762;2023-08-08T00:48:09;99402.34;;;25.43;54.08
28630;BME280;15817;42.130;24.762;2023-08-08T00:50:36;99396.16;;;25.41;54.28
28630;BME280;15817;42.130;24.762;2023-08-08T00:53:04;99400.75;;;25.28;55.03
28630;BME280;15817;42.130;24.762;2023-08-08T00:55:30;99400.13;;;25.24;55.36
28630;BME280;15817;42.130;24.762;2023-08-08T00:57:56;99405.69;;;25.23;56.04
28630;BME280;15817;42.130;24.762;2023-08-08T01:00:22;99399.69;;;25.18;56.54
28630;BME280;15817;42.130;24.762;2023-08-08T01:02:48;99405.72;;;25.10;56.86
28630;BME280;15817;42.130;24.762;2023-08-08T01:05:14;99414.19;;;25.18;56.68
28630;BME280;15817;42.130;24.762;2023-08-08T01:07:57;99415.41;;;25.14;57.08
28630;BME280;15817;42.130;24.762;2023-08-08T01:10:34;99413.19;;;25.19;56.74
28630;BME280;15817;42.130;24.762;2023-08-08T01:13:07;99404.63;;;25.13;56.88
28630;BME280;15817;42.130;24.762;2023-08-08T01:15:36;99417.59;;;25.09;57.19
28630;BME280;15817;42.130;24.762;2023-08-08T01:18:04;99417.00;;;25.17;57.25
28630;BME280;15817;42.130;24.762;2023-08-08T01:20:34;99407.75;;;25.19;57.07
28630;BME280;15817;42.130;24.762;2023-08-08T01:23:14;99408.75;;;25.18;57.14
28630;BME280;15817;42.130;24.762;2023-08-08T01:25:46;99426.81;;;25.19;57.22
28630;BME280;15817;42.130;24.762;2023-08-08T01:28:15;99429.88;;;25.15;56.99
28630;BME280;15817;42.130;24.762;2023-08-08T01:30:44;99433.91;;;25.09;56.53
28630;BME280;15817;42.130;24.762;2023-08-08T01:33:10;99434.88;;;24.83;56.69
28630;BME280;15817;42.130;24.762;2023-08-08T01:35:38;99436.09;;;24.66;56.91
28630;BME280;15817;42.130;24.762;2023-08-08T01:40:47;99455.66;;;24.59;57.28
28630;BME280;15817;42.130;24.762;2023-08-08T01:43:15;99435.44;;;24.63;57.24
28630;BME280;15817;42.130;24.762;2023-08-08T01:45:44;99446.50;;;24.60;57.51
28630;BME280;15817;42.130;24.762;2023-08-08T01:48:11;99449.44;;;24.69;57.32
28630;BME280;15817;42.130;24.762;2023-08-08T01:50:37;99455.03;;;24.68;57.33
28630;BME280;15817;42.130;24.762;2023-08-08T01:53:12;99451.63;;;24.64;57.51
28630;BME280;15817;42.130;24.762;2023-08-08T01:55:41;99448.59;;;24.69;57.32
28630;BME280;15817;42.130;24.762;2023-08-08T01:58:06;99450.00;;;24.62;57.69
28630;BME280;15817;42.130;24.762;2023-08-08T02:00:32;99450.53;;;24.41;58.12
28630;BME280;15817;42.130;24.762;2023-08-08T02:02:58;99463.16;;;24.42;58.22
28630;BME280;15817;42.130;24.762;2023-08-08T02:05:24;99454.53;;;24.36;58.46
28630;BME280;15817;42.130;24.762;2023-08-08T02:07:49;99460.31;;;24.31;58.69
28630;BME280;15817;42.130;24.762;2023-08-08T02:10:18;99453.31;;;24.27;58.60
28630;BME280;15817;42.130;24.762;2023-08-08T02:12:45;99472.06;;;24.17;59.02
28630;BME280;15817;42.130;24.762;2023-08-08T02:15:11;99470.00;;;24.08;59.16
28630;BME280;15817;42.130;24.762;2023-08-08T02:17:38;99472.59;;;24.10;59.59
28630;BME280;15817;42.130;24.762;2023-08-08T02:20:05;99468.53;;;24.03;59.69
28630;BME280;15817;42.130;24.762;2023-08-08T02:22:35;99484.22;;;24.12;59.60
28630;BME280;15817;42.130;24.762;2023-08-08T02:25:02;99482.91;;;24.05;60.05
28630;BME280;15817;42.130;24.762;2023-08-08T02:27:28;99493.56;;;24.08;60.04
28630;BME280;15817;42.130;24.762;2023-08-08T02:29:53;99505.31;;;24.08;60.27
28630;BME280;15817;42.130;24.762;2023-08-08T02:32:19;99486.75;;;24.15;59.81
28630;BME280;15817;42.130;24.762;2023-08-08T02:34:47;99488.38;;;24.17;59.22
28630;BME280;15817;42.130;24.762;2023-08-08T02:37:13;99497.06;;;24.10;59.69
28630;BME280;15817;42.130;24.762;2023-08-08T02:39:43;99500.38;;;24.01;59.86
28630;BME280;15817;42.130;24.762;2023-08-08T02:42:09;99498.78;;;23.84;60.48
28630;BME280;15817;42.130;24.762;2023-08-08T02:44:35;99505.28;;;23.81;60.87
28630;BME280;15817;42.130;24.762;2023-08-08T02:47:01;99510.13;;;23.91;60.74
28630;BME280;15817;42.130;24.762;2023-08-08T02:49:27;99518.84;;;23.96;60.75
28630;BME280;15817;42.130;24.762;2023-08-08T02:51:53;99514.72;;;24.03;60.53
28630;BME280;15817;42.130;24.762;2023-08-08T02:54:19;99515.19;;;23.82;61.44
28630;BME280;15817;42.130;24.762;2023-08-08T02:56:45;99519.50;;;23.72;62.05
28630;BME280;15817;42.130;24.762;2023-08-08T02:59:11;99525.13;;;23.69;62.34
28630;BME280;15817;42.130;24.762;2023-08-08T03:01:37;99522.13;;;23.60;62.65
28630;BME280;15817;42.130;24.762;2023-08-08T03:04:11;99520.66;;;23.54;62.95
28630;BME280;15817;42.130;24.762;2023-08-08T03:06:36;99530.28;;;23.60;63.50
28630;BME280;15817;42.130;24.762;2023-08-08T03:09:02;99523.28;;;23.56;63.41
28630;BME280;15817;42.130;24.762;2023-08-08T03:11:49;99533.97;;;23.59;63.38
28630;BME280;15817;42.130;24.762;2023-08-08T03:14:16;99543.56;;;23.64;64.08
28630;BME280;15817;42.130;24.762;2023-08-08T03:16:42;99541.31;;;23.57;64.37
28630;BME280;15817;42.130;24.762;2023-08-08T03:19:15;99551.22;;;23.58;64.84
28630;BME280;15817;42.130;24.762;2023-08-08T03:21:40;99555.97;;;23.54;64.96
28630;BME280;15817;42.130;24.762;2023-08-08T03:24:07;99561.66;;;23.50;65.41
28630;BME280;15817;42.130;24.762;2023-08-08T03:26:33;99561.09;;;23.44;65.99
28630;BME280;15817;42.130;24.762;2023-08-08T03:28:59;99574.09;;;23.39;66.46
28630;BME280;15817;42.130;24.762;2023-08-08T03:31:34;99583.38;;;23.35;67.20
28630;BME280;15817;42.130;24.762;2023-08-08T03:34:03;99584.13;;;23.09;68.12
28630;BME280;15817;42.130;24.762;2023-08-08T03:36:31;99592.59;;;23.19;68.28
28630;BME280;15817;42.130;24.762;2023-08-08T03:39:00;99594.53;;;23.17;68.16
28630;BME280;15817;42.130;24.762;2023-08-08T03:41:26;99597.03;;;23.20;68.51
28630;BME280;15817;42.130;24.762;2023-08-08T03:43:52;99601.72;;;23.18;68.74
28630;BME280;15817;42.130;24.762;2023-08-08T03:46:18;99607.50;;;23.11;69.42
28630;BME280;15817;42.130;24.762;2023-08-08T03:48:53;99608.75;;;23.06;71.34
28630;BME280;15817;42.130;24.762;2023-08-08T03:51:19;99623.72;;;22.97;72.44
28630;BME280;15817;42.130;24.762;2023-08-08T03:53:45;99620.66;;;23.03;72.27
28630;BME280;15817;42.130;24.762;2023-08-08T03:56:11;99632.00;;;22.96;72.33
28630;BME280;15817;42.130;24.762;2023-08-08T03:58:40;99634.00;;;22.92;72.56
28630;BME280;15817;42.130;24.762;2023-08-08T04:01:05;99645.66;;;23.08;71.98
28630;BME280;15817;42.130;24.762;2023-08-08T04:03:31;99658.72;;;23.02;71.78
28630;BME280;15817;42.130;24.762;2023-08-08T04:05:57;99656.94;;;22.71;72.44
28630;BME280;15817;42.130;24.762;2023-08-08T04:08:23;99669.34;;;22.75;72.54
28630;BME280;15817;42.130;24.762;2023-08-08T04:10:49;99674.19;;;22.54;72.56
28630;BME280;15817;42.130;24.762;2023-08-08T04:13:15;99668.59;;;22.42;72.45
28630;BME280;15817;42.130;24.762;2023-08-08T04:15:40;99694.03;;;22.55;72.48
28630;BME280;15817;42.130;24.762;2023-08-08T04:18:06;99679.72;;;22.37;74.35
28630;BME280;15817;42.130;24.762;2023-08-08T04:20:33;99687.06;;;22.35;80.06
28630;BME280;15817;42.130;24.762;2023-08-08T04:23:02;99696.13;;;22.18;87.71
28630;BME280;15817;42.130;24.762;2023-08-08T04:25:28;99702.25;;;22.06;91.91
28630;BME280;15817;42.130;24.762;2023-08-08T04:27:54;99723.94;;;22.22;93.03
28630;BME280;15817;42.130;24.762;2023-08-08T04:30:20;99726.22;;;22.29;94.11
28630;BME280;15817;42.130;24.762;2023-08-08T04:40:53;99710.94;;;21.95;96.89
28630;BME280;15817;42.130;24.762;2023-08-08T04:43:19;99716.66;;;22.07;95.28
28630;BME280;15817;42.130;24.762;2023-08-08T04:45:48;99710.84;;;22.14;96.67
28630;BME280;15817;42.130;24.762;2023-08-08T04:48:14;99714.03;;;22.05;96.02
28630;BME280;15817;42.130;24.762;2023-08-08T04:50:39;99725.25;;;21.97;96.62
28630;BME280;15817;42.130;24.762;2023-08-08T04:53:11;99728.78;;;21.82;96.60
28630;BME280;15817;42.130;24.762;2023-08-08T04:55:40;99734.63;;;21.75;97.23
28630;BME280;15817;42.130;24.762;2023-08-08T04:58:09;99753.44;;;21.78;97.67
28630;BME280;15817;42.130;24.762;2023-08-08T05:00:37;99757.31;;;21.72;97.00
28630;BME280;15817;42.130;24.762;2023-08-08T05:03:03;99762.97;;;21.85;97.03
28630;BME280;15817;42.130;24.762;2023-08-08T05:05:29;99762.34;;;21.80;97.92
28630;BME280;15817;42.130;24.762;2023-08-08T05:08:04;99780.50;;;21.78;98.19
28630;BME280;15817;42.130;24.762;2023-08-08T05:10:30;99785.03;;;21.60;98.26
28630;BME280;15817;42.130;24.762;2023-08-08T05:12:57;99783.69;;;21.51;98.79
28630;BME280;15817;42.130;24.762;2023-08-08T05:15:23;99790.66;;;21.57;98.12
28630;BME280;15817;42.130;24.762;2023-08-08T05:17:58;99793.16;;;21.60;98.72
28630;BME280;15817;42.130;24.762;2023-08-08T05:20:25;99810.69;;;21.70;97.91
28630;BME280;15817;42.130;24.762;2023-08-08T05:22:53;99807.00;;;21.71;98.14
28630;BME280;15817;42.130;24.762;2023-08-08T05:25:19;99816.66;;;21.77;98.30
28630;BME280;15817;42.130;24.762;2023-08-08T05:27:51;99812.13;;;21.77;96.52
28630;BME280;15817;42.130;24.762;2023-08-08T05:30:22;99825.25;;;21.85;97.06
28630;BME280;15817;42.130;24.762;2023-08-08T05:32:48;99831.47;;;21.87;97.86
28630;BME280;15817;42.130;24.762;2023-08-08T05:35:14;99834.00;;;21.73;96.14
28630;BME280;15817;42.130;24.762;2023-08-08T05:37:39;99839.56;;;21.69;96.44
28630;BME280;15817;42.130;24.762;2023-08-08T05:40:07;99847.38;;;21.58;96.15
28630;BME280;15817;42.130;24.762;2023-08-08T05:42:59;99847.72;;;21.52;95.33
28630;BME280;15817;42.130;24.762;2023-08-08T05:45:50;99865.13;;;21.81;94.12
28630;BME280;15817;42.130;24.762;2023-08-08T05:56:13;99872.06;;;21.69;93.41
28630;BME280;15817;42.130;24.762;2023-08-08T05:58:42;99880.03;;;21.55;94.82
28630;BME280;15817;42.130;24.762;2023-08-08T06:01:08;99877.16;;;21.41;94.91
28630;BME280;15817;42.130;24.762;2023-08-08T06:03:49;99873.13;;;21.12;97.25
28630;BME280;15817;42.130;24.762;2023-08-08T06:06:15;99878.31;;;21.17;96.06
28630;BME280;15817;42.130;24.762;2023-08-08T06:08:44;99880.69;;;21.24;97.07
28630;BME280;15817;42.130;24.762;2023-08-08T06:11:09;99877.81;;;21.27;97.90
28630;BME280;15817;42.130;24.762;2023-08-08T06:13:36;99875.13;;;21.27;96.83
28630;BME280;15817;42.130;24.762;2023-08-08T06:16:02;99880.53;;;21.27;95.33
28630;BME280;15817;42.130;24.762;2023-08-08T06:18:39;99877.91;;;21.26;96.14
28630;BME280;15817;42.130;24.762;2023-08-08T06:21:23;99890.56;;;21.25;96.10
28630;BME280;15817;42.130;24.762;2023-08-08T06:23:49;99884.50;;;21.20;95.31
28630;BME280;15817;42.130;24.762;2023-08-08T06:26:15;99891.59;;;21.23;96.63
28630;BME280;15817;42.130;24.762;2023-08-08T06:28:41;99883.38;;;21.06;96.29
28630;BME280;15817;42.130;24.762;2023-08-08T06:31:08;99876.22;;;21.05;97.17
28630;BME280;15817;42.130;24.762;2023-08-08T06:33:34;99876.97;;;21.08;96.88
28630;BME280;15817;42.130;24.762;2023-08-08T06:36:00;99874.81;;;21.15;97.51
28630;BME280;15817;42.130;24.762;2023-08-08T06:38:28;99877.03;;;21.07;97.37
28630;BME280;15817;42.130;24.762;2023-08-08T06:40:57;99873.38;;;21.08;97.45
28630;BME280;15817;42.130;24.762;2023-08-08T06:43:32;99866.78;;;21.13;97.97
28630;BME280;15817;42.130;24.762;2023-08-08T06:46:04;99861.28;;;21.15;99.61
28630;BME280;15817;42.130;24.762;2023-08-08T06:48:30;99864.81;;;21.17;98.20
28630;BME280;15817;42.130;24.762;2023-08-08T06:51:03;99866.38;;;21.22;97.08
28630;BME280;15817;42.130;24.762;2023-08-08T06:53:29;99877.91;;;21.26;95.78
28630;BME280;15817;42.130;24.762;2023-08-08T06:56:10;99869.97;;;21.23;97.53
28630;BME280;15817;42.130;24.762;2023-08-08T06:58:39;99862.53;;;21.26;97.31
28630;BME280;15817;42.130;24.762;2023-08-08T07:04:29;99877.53;;;21.34;95.31
28630;BME280;15817;42.130;24.762;2023-08-08T07:10:06;99871.94;;;21.37;93.86
28630;BME280;15817;42.130;24.762;2023-08-08T07:12:35;99868.22;;;21.39;94.90
28630;BME280;15817;42.130;24.762;2023-08-08T07:15:01;99869.50;;;21.49;94.97
28630;BME280;15817;42.130;24.762;2023-08-08T07:17:27;99867.28;;;21.40;96.56
28630;BME280;15817;42.130;24.762;2023-08-08T07:20:01;99879.44;;;21.31;92.31
28630;BME280;15817;42.130;24.762;2023-08-08T07:22:31;99868.53;;;21.33;91.61
28630;BME280;15817;42.130;24.762;2023-08-08T07:25:00;99878.16;;;21.39;91.89
28630;BME280;15817;42.130;24.762;2023-08-08T07:27:29;99880.66;;;21.43;93.09
28630;BME280;15817;42.130;24.762;2023-08-08T07:29:57;99883.69;;;21.54;93.13
28630;BME280;15817;42.130;24.762;2023-08-08T07:32:44;99882.97;;;21.51;94.41
28630;BME280;15817;42.130;24.762;2023-08-08T07:35:10;99881.22;;;21.50;95.16
28630;BME280;15817;42.130;24.762;2023-08-08T07:37:41;99884.88;;;21.49;93.02
28630;BME280;15817;42.130;24.762;2023-08-08T07:40:36;99880.91;;;21.56;91.38
28630;BME280;15817;42.130;24.762;2023-08-08T07:43:09;99880.59;;;21.62;92.85
28630;BME280;15817;42.130;24.762;2023-08-08T07:45:44;99896.34;;;21.71;94.24
28630;BME280;15817;42.130;24.762;2023-08-08T07:51:56;99898.75;;;21.60;92.89
28630;BME280;15817;42.130;24.762;2023-08-08T07:54:27;99903.53;;;21.55;89.99
28630;BME280;15817;42.130;24.762;2023-08-08T07:56:53;99900.75;;;21.56;91.00
28630;BME280;15817;42.130;24.762;2023-08-08T07:59:19;99903.06;;;21.64;92.60
28630;BME280;15817;42.130;24.762;2023-08-08T08:01:45;99911.19;;;21.64;92.73
28630;BME280;15817;42.130;24.762;2023-08-08T08:04:14;99908.41;;;21.65;88.59
28630;BME280;15817;42.130;24.762;2023-08-08T08:06:45;99913.16;;;21.60;90.28
28630;BME280;15817;42.130;24.762;2023-08-08T08:12:07;99910.50;;;21.59;90.67
28630;BME280;15817;42.130;24.762;2023-08-08T08:14:51;99908.00;;;21.56;89.37
28630;BME280;15817;42.130;24.762;2023-08-08T08:17:17;99900.50;;;21.61;88.63
28630;BME280;15817;42.130;24.762;2023-08-08T08:19:56;99916.25;;;21.70;88.93
28630;BME280;15817;42.130;24.762;2023-08-08T08:22:28;99892.56;;;21.75;87.62
28630;BME280;15817;42.130;24.762;2023-08-08T08:25:02;99894.69;;;21.86;84.37
28630;BME280;15817;42.130;24.762;2023-08-08T08:27:28;99896.38;;;21.88;84.64
28630;BME280;15817;42.130;24.762;2023-08-08T08:30:06;99899.16;;;21.87;83.95
28630;BME280;15817;42.130;24.762;2023-08-08T08:32:38;99893.69;;;21.88;84.61
28630;BME280;15817;42.130;24.762;2023-08-08T08:35:48;99892.72;;;21.89;83.51
28630;BME280;15817;42.130;24.762;2023-08-08T08:38:28;99883.38;;;21.95;81.67
28630;BME280;15817;42.130;24.762;2023-08-08T08:40:58;99893.53;;;22.26;80.31
28630;BME280;15817;42.130;24.762;2023-08-08T08:43:42;99893.63;;;22.24;79.86
28630;BME280;15817;42.130;24.762;2023-08-08T08:46:11;99888.09;;;22.76;77.05
28630;BME280;15817;42.130;24.762;2023-08-08T08:48:57;99884.69;;;23.20;75.00
28630;BME280;15817;42.130;24.762;2023-08-08T08:51:27;99885.50;;;23.53;73.53
28630;BME280;15817;42.130;24.762;2023-08-08T08:54:05;99872.75;;;23.69;71.58
28630;BME280;15817;42.130;24.762;2023-08-08T08:56:38;99879.59;;;23.91;70.59
28630;BME280;15817;42.130;24.762;2023-08-08T08:59:07;99876.75;;;24.08;70.27
28630;BME280;15817;42.130;24.762;2023-08-08T09:01:41;99877.72;;;24.07;68.08
28630;BME280;15817;42.130;24.762;2023-08-08T09:04:16;99872.66;;;24.15;66.86
28630;BME280;15817;42.130;24.762;2023-08-08T09:06:50;99870.56;;;24.20;67.19
28630;BME280;15817;42.130;24.762;2023-08-08T09:09:24;99870.75;;;24.17;67.57
28630;BME280;15817;42.130;24.762;2023-08-08T09:12:07;99871.47;;;24.49;66.81
28630;BME280;15817;42.130;24.762;2023-08-08T09:15:08;99864.38;;;24.75;65.23
28630;BME280;15817;42.130;24.762;2023-08-08T09:17:42;99880.50;;;24.92;64.19
28630;BME280;15817;42.130;24.762;2023-08-08T09:20:13;99874.69;;;24.98;62.01
28630;BME280;15817;42.130;24.762;2023-08-08T09:22:43;99866.41;;;25.14;61.51
28630;BME280;15817;42.130;24.762;2023-08-08T09:25:09;99872.41;;;25.19;61.08
28630;BME280;15817;42.130;24.762;2023-08-08T09:27:35;99858.66;;;25.35;61.51
28630;BME280;15817;42.130;24.762;2023-08-08T09:30:04;99857.69;;;25.63;57.83
28630;BME280;15817;42.130;24.762;2023-08-08T09:32:38;99850.56;;;25.60;57.40
28630;BME280;15817;42.130;24.762;2023-08-08T09:35:12;99861.88;;;25.81;57.54
28630;BME280;15817;42.130;24.762;2023-08-08T09:37:38;99857.41;;;25.80;56.45
28630;BME280;15817;42.130;24.762;2023-08-08T09:40:09;99853.28;;;26.00;56.44
28630;BME280;15817;42.130;24.762;2023-08-08T09:42:56;99840.66;;;26.24;55.54
28630;BME280;15817;42.130;24.762;2023-08-08T09:45:39;99844.63;;;26.32;54.20
28630;BME280;15817;42.130;24.762;2023-08-08T09:48:07;99854.25;;;26.51;53.40
28630;BME280;15817;42.130;24.762;2023-08-08T09:50:33;99844.09;;;26.53;52.87
28630;BME280;15817;42.130;24.762;2023-08-08T09:53:04;99835.25;;;26.49;52.48
28630;BME280;15817;42.130;24.762;2023-08-08T09:55:34;99828.91;;;26.61;52.17
28630;BME280;15817;42.130;24.762;2023-08-08T09:58:05;99827.47;;;26.56;52.71
28630;BME280;15817;42.130;24.762;2023-08-08T10:00:33;99823.88;;;26.05;54.05
28630;BME280;15817;42.130;24.762;2023-08-08T10:03:00;99832.38;;;26.13;52.19
28630;BME280;15817;42.130;24.762;2023-08-08T10:05:36;99841.13;;;25.66;53.21
28630;BME280;15817;42.130;24.762;2023-08-08T10:08:05;99832.59;;;25.57;51.66
28630;BME280;15817;42.130;24.762;2023-08-08T10:10:38;99835.16;;;25.46;51.38
28630;BME280;15817;42.130;24.762;2023-08-08T10:13:05;99829.97;;;25.29;53.49
28630;BME280;15817;42.130;24.762;2023-08-08T10:15:37;99846.28;;;25.70;52.60
28630;BME280;15817;42.130;24.762;2023-08-08T10:18:10;99839.63;;;25.74;51.99
28630;BME280;15817;42.130;24.762;2023-08-08T10:20:38;99824.72;;;25.53;51.97
28630;BME280;15817;42.130;24.762;2023-08-08T10:23:04;99840.47;;;25.35;50.83
28630;BME280;15817;42.130;24.762;2023-08-08T10:25:35;99839.47;;;26.15;48.33
28630;BME280;15817;42.130;24.762;2023-08-08T10:28:09;99830.47;;;26.40;47.63
28630;BME280;15817;42.130;24.762;2023-08-08T10:30:56;99849.56;;;25.88;47.91
28630;BME280;15817;42.130;24.762;2023-08-08T10:33:28;99833.19;;;26.27;47.01
28630;BME280;15817;42.130;24.762;2023-08-08T10:36:02;99838.47;;;26.67;46.85
28630;BME280;15817;42.130;24.762;2023-08-08T10:38:52;99814.63;;;27.07;45.56
28630;BME280;15817;42.130;24.762;2023-08-08T10:41:21;99835.94;;;27.26;44.75
28630;BME280;15817;42.130;24.762;2023-08-08T10:43:53;99822.88;;;27.42;43.11
28630;BME280;15817;42.130;24.762;2023-08-08T10:46:34;99820.91;;;27.44;43.63
28630;BME280;15817;42.130;24.762;2023-08-08T10:49:08;99817.81;;;27.49;43.48
28630;BME280;15817;42.130;24.762;2023-08-08T10:51:43;99823.94;;;27.52;42.84
28630;BME280;15817;42.130;24.762;2023-08-08T10:56:40;99818.69;;;27.73;42.91
28630;BME280;15817;42.130;24.762;2023-08-08T10:59:19;99815.69;;;28.00;42.64
28630;BME280;15817;42.130;24.762;2023-08-08T11:01:46;99824.63;;;28.02;41.41
28630;BME280;15817;42.130;24.762;2023-08-08T11:04:16;99811.22;;;28.10;41.92
28630;BME280;15817;42.130;24.762;2023-08-08T11:06:43;99816.69;;;28.10;41.35
28630;BME280;15817;42.130;24.762;2023-08-08T11:09:15;99800.84;;;28.37;40.25
28630;BME280;15817;42.130;24.762;2023-08-08T11:11:49;99804.38;;;28.16;41.02
28630;BME280;15817;42.130;24.762;2023-08-08T11:14:22;99815.31;;;28.16;40.78
28630;BME280;15817;42.130;24.762;2023-08-08T11:16:49;99797.75;;;27.96;40.54
28630;BME280;15817;42.130;24.762;2023-08-08T11:19:16;99806.59;;;27.99;40.77
28630;BME280;15817;42.130;24.762;2023-08-08T11:21:43;99817.38;;;28.25;40.66
28630;BME280;15817;42.130;24.762;2023-08-08T11:24:09;99808.34;;;28.00;40.79
28630;BME280;15817;42.130;24.762;2023-08-08T11:26:36;99797.88;;;27.94;41.10
28630;BME280;15817;42.130;24.762;2023-08-08T11:29:06;99786.22;;;27.33;41.55
28630;BME280;15817;42.130;24.762;2023-08-08T11:31:34;99787.81;;;26.88;42.13
28630;BME280;15817;42.130;24.762;2023-08-08T11:34:03;99786.28;;;26.97;41.81
28630;BME280;15817;42.130;24.762;2023-08-08T11:36:36;99782.94;;;27.52;40.01
28630;BME280;15817;42.130;24.762;2023-08-08T11:39:03;99778.25;;;27.89;38.80
28630;BME280;15817;42.130;24.762;2023-08-08T11:41:37;99780.34;;;27.86;39.28
28630;BME280;15817;42.130;24.762;2023-08-08T11:44:04;99777.56;;;27.74;40.17
28630;BME280;15817;42.130;24.762;2023-08-08T11:46:32;99777.84;;;27.83;38.98
28630;BME280;15817;42.130;24.762;2023-08-08T11:49:14;99762.31;;;27.94;39.69
28630;BME280;15817;42.130;24.762;2023-08-08T11:51:44;99768.56;;;28.07;39.25
28630;BME280;15817;42.130;24.762;2023-08-08T11:54:11;99764.88;;;28.20;37.94
28630;BME280;15817;42.130;24.762;2023-08-08T11:56:38;99767.75;;;28.29;37.85
28630;BME280;15817;42.130;24.762;2023-08-08T11:59:06;99758.19;;;28.24;38.84
28630;BME280;15817;42.130;24.762;2023-08-08T12:01:33;99759.53;;;28.18;38.67
28630;BME280;15817;42.130;24.762;2023-08-08T12:04:05;99761.16;;;28.32;38.93
28630;BME280;15817;42.130;24.762;2023-08-08T12:06:32;99760.53;;;28.39;40.54
28630;BME280;15817;42.130;24.762;2023-08-08T12:09:01;99749.22;;;28.44;40.01
28630;BME280;15817;42.130;24.762;2023-08-08T12:11:27;99750.31;;;28.41;40.33
28630;BME280;15817;42.130;24.762;2023-08-08T12:13:58;99757.78;;;28.51;38.47
28630;BME280;15817;42.130;24.762;2023-08-08T12:16:27;99749.47;;;28.41;38.17
28630;BME280;15817;42.130;24.762;2023-08-08T12:18:55;99740.50;;;28.50;38.87
28630;BME280;15817;42.130;24.762;2023-08-08T12:21:20;99740.34;;;28.63;38.16
28630;BME280;15817;42.130;24.762;2023-08-08T12:23:46;99726.44;;;28.55;37.86
28630;BME280;15817;42.130;24.762;2023-08-08T12:26:12;99735.41;;;28.57;37.69
28630;BME280;15817;42.130;24.762;2023-08-08T12:28:39;99726.22;;;28.46;38.56
28630;BME280;15817;42.130;24.762;2023-08-08T12:31:05;99729.06;;;28.56;38.63
28630;BME280;15817;42.130;24.762;2023-08-08T12:33:31;99730.53;;;28.71;38.75
28630;BME280;15817;42.130;24.762;2023-08-08T12:35:56;99730.00;;;28.77;39.10
28630;BME280;15817;42.130;24.762;2023-08-08T12:38:22;99727.91;;;28.92;39.04
28630;BME280;15817;42.130;24.762;2023-08-08T12:40:48;99724.75;;;28.97;40.27
28630;BME280;15817;42.130;24.762;2023-08-08T12:43:14;99723.94;;;28.63;40.19
28630;BME280;15817;42.130;24.762;2023-08-08T12:45:46;99720.06;;;28.88;40.01
28630;BME280;15817;42.130;24.762;2023-08-08T12:48:14;99718.16;;;28.99;39.73
28630;BME280;15817;42.130;24.762;2023-08-08T12:50:40;99721.59;;;28.47;39.27
28630;BME280;15817;42.130;24.762;2023-08-08T12:53:06;99716.75;;;28.39;39.11
28630;BME280;15817;42.130;24.762;2023-08-08T12:55:33;99709.50;;;28.16;40.17
28630;BME280;15817;42.130;24.762;2023-08-08T12:57:59;99710.13;;;28.08;39.25
28630;BME280;15817;42.130;24.762;2023-08-08T13:00:24;99703.59;;;28.22;38.91
28630;BME280;15817;42.130;24.762;2023-08-08T13:02:50;99697.13;;;28.34;39.03
28630;BME280;15817;42.130;24.762;2023-08-08T13:05:16;99705.16;;;28.58;39.44
28630;BME280;15817;42.130;24.762;2023-08-08T13:07:44;99707.91;;;28.58;38.29
28630;BME280;15817;42.130;24.762;2023-08-08T13:10:10;99706.50;;;28.75;38.18
28630;BME280;15817;42.130;24.762;2023-08-08T13:12:36;99705.25;;;28.90;38.29
28630;BME280;15817;42.130;24.762;2023-08-08T13:15:02;99694.63;;;28.97;37.88
28630;BME280;15817;42.130;24.762;2023-08-08T13:17:29;99709.94;;;28.99;36.28
28630;BME280;15817;42.130;24.762;2023-08-08T13:19:57;99702.63;;;28.89;37.20
28630;BME280;15817;42.130;24.762;2023-08-08T13:22:23;99699.91;;;28.66;36.49
28630;BME280;15817;42.130;24.762;2023-08-08T13:24:49;99698.19;;;28.65;36.17
28630;BME280;15817;42.130;24.762;2023-08-08T13:27:14;99698.19;;;28.65;36.26
28630;BME280;15817;42.130;24.762;2023-08-08T13:29:43;99691.59;;;28.68;36.40
28630;BME280;15817;42.130;24.762;2023-08-08T13:32:08;99692.56;;;28.67;36.40
28630;BME280;15817;42.130;24.762;2023-08-08T13:34:34;99702.41;;;28.80;35.35
28630;BME280;15817;42.130;24.762;2023-08-08T13:37:00;99704.91;;;28.84;36.36